sensor_id;sensor_type;location;lat;lon;timestamp;P1;durP1;ratioP1;P2;durP2;ratioP2
74707;SDS011;63360;50.104;8.074;2023-04-09T00:01:59;5.10;;;2.50;;
74707;SDS011;63360;50.104;8.074;2023-04-09T00:04:26;4.63;;;1.90;;
74707;SDS011;63360;50.104;8.074;2023-04-09T00:06:53;5.72;;;2.60;;
74707;SDS011;63360;50.104;8.074;2023-04-09T00:09:19;6.22;;;2.30;;
74707;SDS011;63360;50.104;8.074;2023-04-09T00:11:45;5.78;;;2.38;;
74707;SDS011;63360;50.104;8.074;2023-04-09T00:14:12;4.83;;;2.10;;
74707;SDS011;63360;50.104;8.074;2023-04-09T00:16:38;6.63;;;2.42;;
74707;SDS011;63360;50.104;8.074;2023-04-09T00:19:05;5.10;;;2.20;;
74707;SDS011;63360;50.104;8.074;2023-04-09T00:21:32;4.90;;;2.45;;
74707;SDS011;63360;50.104;8.074;2023-04-09T00:23:59;6.40;;;2.55;;
74707;SDS011;63360;50.104;8.074;2023-04-09T00:26:25;5.33;;;2.43;;
74707;SDS011;63360;50.104;8.074;2023-04-09T00:28:51;4.82;;;2.20;;
74707;SDS011;63360;50.104;8.074;2023-04-09T00:31:18;5.63;;;2.30;;
74707;SDS011;63360;50.104;8.074;2023-04-09T00:33:46;4.93;;;2.13;;
74707;SDS011;63360;50.104;8.074;2023-04-09T00:36:12;5.10;;;2.25;;
74707;SDS011;63360;50.104;8.074;2023-04-09T00:38:39;5.13;;;2.30;;
74707;SDS011;63360;50.104;8.074;2023-04-09T00:41:05;6.13;;;2.40;;
74707;SDS011;63360;50.104;8.074;2023-04-09T00:43:33;4.78;;;2.20;;
74707;SDS011;63360;50.104;8.074;2023-04-09T00:45:59;7.03;;;2.53;;
74707;SDS011;63360;50.104;8.074;2023-04-09T00:48:26;5.72;;;2.45;;
74707;SDS011;63360;50.104;8.074;2023-04-09T00:50:53;5.33;;;2.53;;
74707;SDS011;63360;50.104;8.074;2023-04-09T00:53:19;5.75;;;2.58;;
74707;SDS011;63360;50.104;8.074;2023-04-09T00:55:45;6.10;;;2.67;;
74707;SDS011;63360;50.104;8.074;2023-04-09T00:58:12;6.68;;;2.90;;
74707;SDS011;63360;50.104;8.074;2023-04-09T01:00:39;7.20;;;3.10;;
74707;SDS011;63360;50.104;8.074;2023-04-09T01:03:05;5.17;;;2.50;;
74707;SDS011;63360;50.104;8.074;2023-04-09T01:05:36;5.70;;;2.53;;
74707;SDS011;63360;50.104;8.074;2023-04-09T01:08:18;6.63;;;2.83;;
74707;SDS011;63360;50.104;8.074;2023-04-09T01:11:07;6.13;;;2.85;;
74707;SDS011;63360;50.104;8.074;2023-04-09T01:13:48;7.57;;;3.15;;
74707;SDS011;63360;50.104;8.074;2023-04-09T01:16:18;7.33;;;2.83;;
74707;SDS011;63360;50.104;8.074;2023-04-09T01:19:00;6.97;;;2.95;;
74707;SDS011;63360;50.104;8.074;2023-04-09T01:21:43;6.82;;;2.95;;
74707;SDS011;63360;50.104;8.074;2023-04-09T01:27:16;7.43;;;3.28;;
74707;SDS011;63360;50.104;8.074;2023-04-09T01:29:44;7.27;;;3.10;;
74707;SDS011;63360;50.104;8.074;2023-04-09T01:32:12;5.53;;;2.80;;
74707;SDS011;63360;50.104;8.074;2023-04-09T01:34:42;6.20;;;2.90;;
74707;SDS011;63360;50.104;8.074;2023-04-09T01:37:11;7.43;;;3.63;;
74707;SDS011;63360;50.104;8.074;2023-04-09T01:39:40;7.30;;;3.30;;
74707;SDS011;63360;50.104;8.074;2023-04-09T01:42:07;6.13;;;2.80;;
74707;SDS011;63360;50.104;8.074;2023-04-09T01:44:37;6.13;;;2.85;;
74707;SDS011;63360;50.104;8.074;2023-04-09T01:47:05;7.22;;;3.58;;
74707;SDS011;63360;50.104;8.074;2023-04-09T01:49:33;6.18;;;3.00;;
74707;SDS011;63360;50.104;8.074;2023-04-09T01:52:01;7.53;;;3.20;;
74707;SDS011;63360;50.104;8.074;2023-04-09T01:54:28;7.80;;;3.00;;
74707;SDS011;63360;50.104;8.074;2023-04-09T01:56:55;6.63;;;3.05;;
74707;SDS011;63360;50.104;8.074;2023-04-09T01:59:22;5.85;;;2.78;;
74707;SDS011;63360;50.104;8.074;2023-04-09T02:01:52;7.57;;;3.28;;
74707;SDS011;63360;50.104;8.074;2023-04-09T02:04:32;7.75;;;3.60;;
74707;SDS011;63360;50.104;8.074;2023-04-09T02:07:22;6.43;;;3.00;;
74707;SDS011;63360;50.104;8.074;2023-04-09T02:10:02;8.40;;;3.75;;
74707;SDS011;63360;50.104;8.074;2023-04-09T02:12:32;7.47;;;3.50;;
74707;SDS011;63360;50.104;8.074;2023-04-09T02:15:01;7.18;;;3.20;;
74707;SDS011;63360;50.104;8.074;2023-04-09T02:17:28;7.68;;;3.20;;
74707;SDS011;63360;50.104;8.074;2023-04-09T02:19:54;7.10;;;3.20;;
74707;SDS011;63360;50.104;8.074;2023-04-09T02:22:21;7.05;;;3.10;;
74707;SDS011;63360;50.104;8.074;2023-04-09T02:24:47;6.82;;;3.05;;
74707;SDS011;63360;50.104;8.074;2023-04-09T02:27:14;7.68;;;3.50;;
74707;SDS011;63360;50.104;8.074;2023-04-09T02:29:41;7.72;;;3.42;;
74707;SDS011;63360;50.104;8.074;2023-04-09T02:32:08;6.77;;;3.30;;
74707;SDS011;63360;50.104;8.074;2023-04-09T02:34:34;8.05;;;3.72;;
74707;SDS011;63360;50.104;8.074;2023-04-09T02:37:01;9.23;;;3.63;;
74707;SDS011;63360;50.104;8.074;2023-04-09T02:39:27;7.93;;;3.20;;
74707;SDS011;63360;50.104;8.074;2023-04-09T02:41:54;7.80;;;3.58;;
74707;SDS011;63360;50.104;8.074;2023-04-09T02:44:21;7.43;;;3.60;;
74707;SDS011;63360;50.104;8.074;2023-04-09T02:46:49;7.22;;;3.20;;
74707;SDS011;63360;50.104;8.074;2023-04-09T02:49:16;8.93;;;3.60;;
74707;SDS011;63360;50.104;8.074;2023-04-09T02:51:43;8.23;;;3.60;;
74707;SDS011;63360;50.104;8.074;2023-04-09T02:54:09;9.15;;;3.55;;
74707;SDS011;63360;50.104;8.074;2023-04-09T02:56:35;9.63;;;4.13;;
74707;SDS011;63360;50.104;8.074;2023-04-09T02:59:02;8.43;;;3.70;;
74707;SDS011;63360;50.104;8.074;2023-04-09T03:01:28;8.75;;;4.15;;
74707;SDS011;63360;50.104;8.074;2023-04-09T03:03:55;9.88;;;4.22;;
74707;SDS011;63360;50.104;8.074;2023-04-09T03:06:21;9.38;;;4.72;;
74707;SDS011;63360;50.104;8.074;2023-04-09T03:08:48;9.73;;;4.43;;
74707;SDS011;63360;50.104;8.074;2023-04-09T03:11:15;11.45;;;4.70;;
74707;SDS011;63360;50.104;8.074;2023-04-09T03:13:41;12.27;;;4.95;;
74707;SDS011;63360;50.104;8.074;2023-04-09T03:16:07;11.48;;;4.75;;
74707;SDS011;63360;50.104;8.074;2023-04-09T03:18:35;9.02;;;4.13;;
74707;SDS011;63360;50.104;8.074;2023-04-09T03:21:05;10.53;;;4.63;;
74707;SDS011;63360;50.104;8.074;2023-04-09T03:23:32;11.30;;;4.85;;
74707;SDS011;63360;50.104;8.074;2023-04-09T03:26:00;14.63;;;6.32;;
74707;SDS011;63360;50.104;8.074;2023-04-09T03:28:28;12.10;;;5.28;;
74707;SDS011;63360;50.104;8.074;2023-04-09T03:30:54;11.15;;;4.85;;
74707;SDS011;63360;50.104;8.074;2023-04-09T03:33:21;13.17;;;5.30;;
74707;SDS011;63360;50.104;8.074;2023-04-09T03:35:47;14.35;;;6.13;;
74707;SDS011;63360;50.104;8.074;2023-04-09T03:38:13;11.90;;;5.28;;
74707;SDS011;63360;50.104;8.074;2023-04-09T03:40:40;14.10;;;5.47;;
74707;SDS011;63360;50.104;8.074;2023-04-09T03:43:07;12.07;;;5.38;;
74707;SDS011;63360;50.104;8.074;2023-04-09T03:45:34;12.60;;;5.53;;
74707;SDS011;63360;50.104;8.074;2023-04-09T03:48:00;11.90;;;4.93;;
74707;SDS011;63360;50.104;8.074;2023-04-09T03:50:27;14.18;;;5.75;;
74707;SDS011;63360;50.104;8.074;2023-04-09T03:52:53;12.77;;;5.25;;
74707;SDS011;63360;50.104;8.074;2023-04-09T03:55:19;14.20;;;6.07;;
74707;SDS011;63360;50.104;8.074;2023-04-09T03:57:46;13.47;;;4.97;;
74707;SDS011;63360;50.104;8.074;2023-04-09T04:00:12;12.02;;;5.30;;
74707;SDS011;63360;50.104;8.074;2023-04-09T04:02:38;15.02;;;5.85;;
74707;SDS011;63360;50.104;8.074;2023-04-09T04:05:05;12.30;;;5.05;;
74707;SDS011;63360;50.104;8.074;2023-04-09T04:07:32;13.13;;;5.50;;
74707;SDS011;63360;50.104;8.074;2023-04-09T04:09:58;12.90;;;5.33;;
74707;SDS011;63360;50.104;8.074;2023-04-09T04:12:25;13.30;;;5.38;;
74707;SDS011;63360;50.104;8.074;2023-04-09T04:14:51;14.95;;;6.05;;
74707;SDS011;63360;50.104;8.074;2023-04-09T04:17:17;13.43;;;5.72;;
74707;SDS011;63360;50.104;8.074;2023-04-09T04:19:44;16.38;;;6.22;;
74707;SDS011;63360;50.104;8.074;2023-04-09T04:22:10;17.00;;;6.77;;
74707;SDS011;63360;50.104;8.074;2023-04-09T04:24:37;16.35;;;6.40;;
74707;SDS011;63360;50.104;8.074;2023-04-09T04:27:03;15.07;;;6.63;;
74707;SDS011;63360;50.104;8.074;2023-04-09T04:29:30;15.85;;;6.18;;
74707;SDS011;63360;50.104;8.074;2023-04-09T04:31:56;14.82;;;6.43;;
74707;SDS011;63360;50.104;8.074;2023-04-09T04:34:23;16.40;;;6.13;;
74707;SDS011;63360;50.104;8.074;2023-04-09T04:36:49;15.63;;;6.63;;
74707;SDS011;63360;50.104;8.074;2023-04-09T04:39:16;17.35;;;7.10;;
74707;SDS011;63360;50.104;8.074;2023-04-09T04:41:42;20.08;;;7.78;;
74707;SDS011;63360;50.104;8.074;2023-04-09T04:44:08;16.52;;;6.65;;
74707;SDS011;63360;50.104;8.074;2023-04-09T04:46:35;18.17;;;7.63;;
74707;SDS011;63360;50.104;8.074;2023-04-09T04:49:01;18.55;;;8.18;;
74707;SDS011;63360;50.104;8.074;2023-04-09T04:51:29;19.33;;;8.27;;
74707;SDS011;63360;50.104;8.074;2023-04-09T04:53:56;21.02;;;8.15;;
74707;SDS011;63360;50.104;8.074;2023-04-09T04:56:23;20.30;;;7.90;;
74707;SDS011;63360;50.104;8.074;2023-04-09T04:58:49;21.33;;;8.23;;
74707;SDS011;63360;50.104;8.074;2023-04-09T05:01:16;19.75;;;8.18;;
74707;SDS011;63360;50.104;8.074;2023-04-09T05:03:42;18.65;;;7.35;;
74707;SDS011;63360;50.104;8.074;2023-04-09T05:06:09;21.13;;;8.43;;
74707;SDS011;63360;50.104;8.074;2023-04-09T05:08:35;22.30;;;8.32;;
74707;SDS011;63360;50.104;8.074;2023-04-09T05:11:02;21.37;;;8.60;;
74707;SDS011;63360;50.104;8.074;2023-04-09T05:13:28;20.77;;;8.07;;
74707;SDS011;63360;50.104;8.074;2023-04-09T05:15:55;24.33;;;9.10;;
74707;SDS011;63360;50.104;8.074;2023-04-09T05:18:21;21.33;;;8.40;;
74707;SDS011;63360;50.104;8.074;2023-04-09T05:20:47;19.13;;;8.30;;
74707;SDS011;63360;50.104;8.074;2023-04-09T05:23:14;19.23;;;7.40;;
74707;SDS011;63360;50.104;8.074;2023-04-09T05:25:40;20.27;;;8.40;;
74707;SDS011;63360;50.104;8.074;2023-04-09T05:28:07;21.40;;;8.73;;
74707;SDS011;63360;50.104;8.074;2023-04-09T05:30:36;20.15;;;7.90;;
74707;SDS011;63360;50.104;8.074;2023-04-09T05:33:02;22.25;;;8.60;;
74707;SDS011;63360;50.104;8.074;2023-04-09T05:35:29;23.17;;;9.07;;
74707;SDS011;63360;50.104;8.074;2023-04-09T05:37:55;21.77;;;8.85;;
74707;SDS011;63360;50.104;8.074;2023-04-09T05:40:22;25.10;;;9.38;;
74707;SDS011;63360;50.104;8.074;2023-04-09T05:42:48;23.50;;;8.65;;
74707;SDS011;63360;50.104;8.074;2023-04-09T05:45:14;22.17;;;8.65;;
74707;SDS011;63360;50.104;8.074;2023-04-09T05:47:41;25.27;;;9.70;;
74707;SDS011;63360;50.104;8.074;2023-04-09T05:50:07;24.20;;;9.80;;
74707;SDS011;63360;50.104;8.074;2023-04-09T05:52:34;22.27;;;9.02;;
74707;SDS011;63360;50.104;8.074;2023-04-09T05:55:00;22.75;;;9.68;;
74707;SDS011;63360;50.104;8.074;2023-04-09T05:57:27;20.08;;;8.85;;
74707;SDS011;63360;50.104;8.074;2023-04-09T05:59:55;25.30;;;10.37;;
74707;SDS011;63360;50.104;8.074;2023-04-09T06:02:22;25.67;;;10.50;;
74707;SDS011;63360;50.104;8.074;2023-04-09T06:04:50;24.60;;;10.38;;
74707;SDS011;63360;50.104;8.074;2023-04-09T06:07:16;25.35;;;10.43;;
74707;SDS011;63360;50.104;8.074;2023-04-09T06:09:43;25.25;;;10.43;;
74707;SDS011;63360;50.104;8.074;2023-04-09T06:12:10;27.07;;;10.97;;
74707;SDS011;63360;50.104;8.074;2023-04-09T06:14:36;22.38;;;9.70;;
74707;SDS011;63360;50.104;8.074;2023-04-09T06:17:02;26.58;;;10.60;;
74707;SDS011;63360;50.104;8.074;2023-04-09T06:19:29;25.35;;;11.75;;
74707;SDS011;63360;50.104;8.074;2023-04-09T06:21:55;22.52;;;9.95;;
74707;SDS011;63360;50.104;8.074;2023-04-09T06:24:22;22.43;;;9.93;;
74707;SDS011;63360;50.104;8.074;2023-04-09T06:26:48;22.65;;;10.30;;
74707;SDS011;63360;50.104;8.074;2023-04-09T06:29:15;21.27;;;9.80;;
74707;SDS011;63360;50.104;8.074;2023-04-09T06:31:41;21.50;;;8.77;;
74707;SDS011;63360;50.104;8.074;2023-04-09T06:34:08;20.52;;;9.18;;
74707;SDS011;63360;50.104;8.074;2023-04-09T06:36:35;20.67;;;9.73;;
74707;SDS011;63360;50.104;8.074;2023-04-09T06:39:02;19.88;;;9.50;;
74707;SDS011;63360;50.104;8.074;2023-04-09T06:41:29;20.17;;;9.65;;
74707;SDS011;63360;50.104;8.074;2023-04-09T06:43:55;19.98;;;9.23;;
74707;SDS011;63360;50.104;8.074;2023-04-09T06:46:22;20.65;;;9.57;;
74707;SDS011;63360;50.104;8.074;2023-04-09T06:48:48;19.67;;;8.93;;
74707;SDS011;63360;50.104;8.074;2023-04-09T06:51:15;18.50;;;9.30;;
74707;SDS011;63360;50.104;8.074;2023-04-09T06:53:41;18.60;;;9.77;;
74707;SDS011;63360;50.104;8.074;2023-04-09T06:56:07;17.38;;;9.27;;
74707;SDS011;63360;50.104;8.074;2023-04-09T06:58:34;18.27;;;9.70;;
74707;SDS011;63360;50.104;8.074;2023-04-09T07:01:00;18.57;;;9.67;;
74707;SDS011;63360;50.104;8.074;2023-04-09T07:03:27;18.17;;;9.55;;
74707;SDS011;63360;50.104;8.074;2023-04-09T07:05:54;17.02;;;9.40;;
74707;SDS011;63360;50.104;8.074;2023-04-09T07:08:21;18.15;;;9.98;;
74707;SDS011;63360;50.104;8.074;2023-04-09T07:10:48;18.00;;;9.07;;
74707;SDS011;63360;50.104;8.074;2023-04-09T07:13:14;18.07;;;9.67;;
74707;SDS011;63360;50.104;8.074;2023-04-09T07:15:41;18.02;;;8.93;;
74707;SDS011;63360;50.104;8.074;2023-04-09T07:18:07;19.13;;;9.65;;
74707;SDS011;63360;50.104;8.074;2023-04-09T07:20:34;17.90;;;9.07;;
74707;SDS011;63360;50.104;8.074;2023-04-09T07:23:01;19.40;;;9.43;;
74707;SDS011;63360;50.104;8.074;2023-04-09T07:25:27;18.80;;;8.90;;
74707;SDS011;63360;50.104;8.074;2023-04-09T07:27:54;20.10;;;9.80;;
74707;SDS011;63360;50.104;8.074;2023-04-09T07:30:20;20.15;;;9.80;;
74707;SDS011;63360;50.104;8.074;2023-04-09T07:32:47;19.15;;;9.45;;
74707;SDS011;63360;50.104;8.074;2023-04-09T07:35:13;19.10;;;9.27;;
74707;SDS011;63360;50.104;8.074;2023-04-09T07:37:40;18.77;;;9.33;;
74707;SDS011;63360;50.104;8.074;2023-04-09T07:40:06;20.45;;;9.90;;
74707;SDS011;63360;50.104;8.074;2023-04-09T07:42:33;17.50;;;8.90;;
74707;SDS011;63360;50.104;8.074;2023-04-09T07:45:02;17.60;;;9.35;;
74707;SDS011;63360;50.104;8.074;2023-04-09T07:47:29;17.92;;;9.30;;
74707;SDS011;63360;50.104;8.074;2023-04-09T07:49:55;18.03;;;9.60;;
74707;SDS011;63360;50.104;8.074;2023-04-09T07:52:22;16.73;;;8.82;;
74707;SDS011;63360;50.104;8.074;2023-04-09T07:54:48;17.02;;;8.90;;
74707;SDS011;63360;50.104;8.074;2023-04-09T07:57:14;16.92;;;9.07;;
74707;SDS011;63360;50.104;8.074;2023-04-09T07:59:41;16.23;;;8.75;;
74707;SDS011;63360;50.104;8.074;2023-04-09T08:02:07;17.97;;;8.83;;
74707;SDS011;63360;50.104;8.074;2023-04-09T08:04:36;17.05;;;8.80;;
74707;SDS011;63360;50.104;8.074;2023-04-09T08:07:02;18.08;;;8.48;;
74707;SDS011;63360;50.104;8.074;2023-04-09T08:09:29;15.98;;;8.10;;
74707;SDS011;63360;50.104;8.074;2023-04-09T08:11:55;16.10;;;8.48;;
74707;SDS011;63360;50.104;8.074;2023-04-09T08:14:22;16.67;;;8.70;;
74707;SDS011;63360;50.104;8.074;2023-04-09T08:16:48;18.63;;;9.15;;
74707;SDS011;63360;50.104;8.074;2023-04-09T08:19:16;17.65;;;8.60;;
74707;SDS011;63360;50.104;8.074;2023-04-09T08:21:43;18.05;;;9.05;;
74707;SDS011;63360;50.104;8.074;2023-04-09T08:24:09;13.98;;;7.78;;
74707;SDS011;63360;50.104;8.074;2023-04-09T08:26:37;16.07;;;8.60;;
74707;SDS011;63360;50.104;8.074;2023-04-09T08:29:04;16.17;;;8.65;;
74707;SDS011;63360;50.104;8.074;2023-04-09T08:31:31;16.77;;;9.10;;
74707;SDS011;63360;50.104;8.074;2023-04-09T08:33:57;15.68;;;8.95;;
74707;SDS011;63360;50.104;8.074;2023-04-09T08:36:24;18.20;;;8.27;;
74707;SDS011;63360;50.104;8.074;2023-04-09T08:38:51;16.30;;;8.60;;
74707;SDS011;63360;50.104;8.074;2023-04-09T08:41:22;16.10;;;8.82;;
74707;SDS011;63360;50.104;8.074;2023-04-09T08:43:50;16.10;;;8.02;;
74707;SDS011;63360;50.104;8.074;2023-04-09T08:46:24;17.35;;;9.13;;
74707;SDS011;63360;50.104;8.074;2023-04-09T08:48:51;15.52;;;7.95;;
74707;SDS011;63360;50.104;8.074;2023-04-09T08:51:19;14.87;;;7.80;;
74707;SDS011;63360;50.104;8.074;2023-04-09T08:53:47;14.32;;;7.88;;
74707;SDS011;63360;50.104;8.074;2023-04-09T08:56:18;16.95;;;8.07;;
74707;SDS011;63360;50.104;8.074;2023-04-09T08:58:47;15.23;;;8.15;;
74707;SDS011;63360;50.104;8.074;2023-04-09T09:01:29;16.25;;;8.85;;
74707;SDS011;63360;50.104;8.074;2023-04-09T09:06:23;14.65;;;8.05;;
74707;SDS011;63360;50.104;8.074;2023-04-09T09:09:00;14.98;;;7.97;;
74707;SDS011;63360;50.104;8.074;2023-04-09T09:11:28;17.85;;;8.45;;
74707;SDS011;63360;50.104;8.074;2023-04-09T09:13:59;15.35;;;8.20;;
74707;SDS011;63360;50.104;8.074;2023-04-09T09:16:26;16.43;;;8.83;;
74707;SDS011;63360;50.104;8.074;2023-04-09T09:18:52;16.10;;;8.25;;
74707;SDS011;63360;50.104;8.074;2023-04-09T09:21:21;16.02;;;8.63;;
74707;SDS011;63360;50.104;8.074;2023-04-09T09:23:48;16.42;;;8.88;;
74707;SDS011;63360;50.104;8.074;2023-04-09T09:26:25;16.48;;;8.50;;
74707;SDS011;63360;50.104;8.074;2023-04-09T09:28:55;15.13;;;8.00;;
74707;SDS011;63360;50.104;8.074;2023-04-09T09:31:25;13.70;;;7.25;;
74707;SDS011;63360;50.104;8.074;2023-04-09T09:33:52;12.98;;;6.93;;
74707;SDS011;63360;50.104;8.074;2023-04-09T09:36:32;12.65;;;7.25;;
74707;SDS011;63360;50.104;8.074;2023-04-09T09:39:00;11.77;;;6.35;;
74707;SDS011;63360;50.104;8.074;2023-04-09T09:41:30;12.93;;;7.40;;
74707;SDS011;63360;50.104;8.074;2023-04-09T09:43:56;13.65;;;7.57;;
74707;SDS011;63360;50.104;8.074;2023-04-09T09:46:23;12.93;;;7.22;;
74707;SDS011;63360;50.104;8.074;2023-04-09T09:48:51;14.82;;;7.30;;
74707;SDS011;63360;50.104;8.074;2023-04-09T09:51:18;17.10;;;8.60;;
74707;SDS011;63360;50.104;8.074;2023-04-09T09:53:50;20.67;;;9.90;;
74707;SDS011;63360;50.104;8.074;2023-04-09T09:56:21;22.85;;;11.98;;
74707;SDS011;63360;50.104;8.074;2023-04-09T09:59:00;16.83;;;8.65;;
74707;SDS011;63360;50.104;8.074;2023-04-09T10:01:31;17.20;;;8.82;;
74707;SDS011;63360;50.104;8.074;2023-04-09T10:03:59;16.08;;;8.32;;
74707;SDS011;63360;50.104;8.074;2023-04-09T10:06:26;16.57;;;8.63;;
74707;SDS011;63360;50.104;8.074;2023-04-09T10:08:56;14.70;;;7.50;;
74707;SDS011;63360;50.104;8.074;2023-04-09T10:11:23;17.52;;;9.60;;
74707;SDS011;63360;50.104;8.074;2023-04-09T10:13:51;16.42;;;8.88;;
74707;SDS011;63360;50.104;8.074;2023-04-09T10:16:21;13.33;;;7.17;;
74707;SDS011;63360;50.104;8.074;2023-04-09T10:18:49;13.47;;;7.43;;
74707;SDS011;63360;50.104;8.074;2023-04-09T10:21:27;13.98;;;7.03;;
74707;SDS011;63360;50.104;8.074;2023-04-09T10:23:55;15.43;;;7.78;;
74707;SDS011;63360;50.104;8.074;2023-04-09T10:26:23;15.10;;;7.63;;
74707;SDS011;63360;50.104;8.074;2023-04-09T10:29:03;14.40;;;7.20;;
74707;SDS011;63360;50.104;8.074;2023-04-09T10:31:44;12.60;;;6.67;;
74707;SDS011;63360;50.104;8.074;2023-04-09T10:34:22;16.27;;;8.77;;
74707;SDS011;63360;50.104;8.074;2023-04-09T10:36:52;9.32;;;5.20;;
74707;SDS011;63360;50.104;8.074;2023-04-09T10:39:29;11.80;;;5.97;;
74707;SDS011;63360;50.104;8.074;2023-04-09T10:41:57;10.70;;;5.43;;
74707;SDS011;63360;50.104;8.074;2023-04-09T10:44:25;12.57;;;6.53;;
74707;SDS011;63360;50.104;8.074;2023-04-09T10:46:55;12.55;;;6.47;;
74707;SDS011;63360;50.104;8.074;2023-04-09T10:49:23;15.95;;;8.48;;
74707;SDS011;63360;50.104;8.074;2023-04-09T10:52:01;13.27;;;7.13;;
74707;SDS011;63360;50.104;8.074;2023-04-09T10:59:34;10.75;;;6.05;;
74707;SDS011;63360;50.104;8.074;2023-04-09T11:02:01;9.02;;;5.13;;
74707;SDS011;63360;50.104;8.074;2023-04-09T11:04:35;9.50;;;4.50;;
74707;SDS011;63360;50.104;8.074;2023-04-09T11:07:06;9.27;;;4.63;;
74707;SDS011;63360;50.104;8.074;2023-04-09T11:09:34;7.60;;;4.13;;
74707;SDS011;63360;50.104;8.074;2023-04-09T11:12:01;6.78;;;3.80;;
74707;SDS011;63360;50.104;8.074;2023-04-09T11:14:28;8.27;;;4.53;;
74707;SDS011;63360;50.104;8.074;2023-04-09T11:16:55;9.68;;;5.22;;
74707;SDS011;63360;50.104;8.074;2023-04-09T11:19:21;11.68;;;5.78;;
74707;SDS011;63360;50.104;8.074;2023-04-09T11:21:48;8.60;;;4.50;;
74707;SDS011;63360;50.104;8.074;2023-04-09T11:24:17;10.27;;;4.90;;
74707;SDS011;63360;50.104;8.074;2023-04-09T11:26:43;7.97;;;4.35;;
74707;SDS011;63360;50.104;8.074;2023-04-09T11:29:10;9.30;;;5.18;;
74707;SDS011;63360;50.104;8.074;2023-04-09T11:31:37;9.48;;;4.78;;
74707;SDS011;63360;50.104;8.074;2023-04-09T11:34:04;9.43;;;5.10;;
74707;SDS011;63360;50.104;8.074;2023-04-09T11:36:32;10.40;;;5.75;;
74707;SDS011;63360;50.104;8.074;2023-04-09T11:38:59;11.43;;;5.75;;
74707;SDS011;63360;50.104;8.074;2023-04-09T11:41:34;11.82;;;6.22;;
74707;SDS011;63360;50.104;8.074;2023-04-09T11:44:04;13.20;;;5.10;;
74707;SDS011;63360;50.104;8.074;2023-04-09T11:46:33;8.33;;;4.60;;
74707;SDS011;63360;50.104;8.074;2023-04-09T11:49:00;11.52;;;5.10;;
74707;SDS011;63360;50.104;8.074;2023-04-09T11:51:27;8.32;;;4.13;;
74707;SDS011;63360;50.104;8.074;2023-04-09T11:54:00;8.45;;;3.85;;
74707;SDS011;63360;50.104;8.074;2023-04-09T11:56:28;9.88;;;5.18;;
74707;SDS011;63360;50.104;8.074;2023-04-09T11:58:56;9.83;;;5.17;;
74707;SDS011;63360;50.104;8.074;2023-04-09T12:01:23;9.40;;;4.97;;
74707;SDS011;63360;50.104;8.074;2023-04-09T12:03:52;8.73;;;4.40;;
74707;SDS011;63360;50.104;8.074;2023-04-09T12:06:20;8.68;;;4.65;;
74707;SDS011;63360;50.104;8.074;2023-04-09T12:08:53;8.38;;;4.55;;
74707;SDS011;63360;50.104;8.074;2023-04-09T12:11:26;8.33;;;4.00;;
74707;SDS011;63360;50.104;8.074;2023-04-09T12:14:03;6.75;;;3.88;;
74707;SDS011;63360;50.104;8.074;2023-04-09T12:16:30;8.70;;;4.40;;
74707;SDS011;63360;50.104;8.074;2023-04-09T12:19:01;8.18;;;4.20;;
74707;SDS011;63360;50.104;8.074;2023-04-09T12:24:18;8.63;;;4.80;;
74707;SDS011;63360;50.104;8.074;2023-04-09T12:26:47;7.80;;;4.50;;
74707;SDS011;63360;50.104;8.074;2023-04-09T12:29:13;8.13;;;4.20;;
74707;SDS011;63360;50.104;8.074;2023-04-09T12:31:41;7.65;;;4.18;;
74707;SDS011;63360;50.104;8.074;2023-04-09T12:34:08;6.18;;;3.78;;
74707;SDS011;63360;50.104;8.074;2023-04-09T12:36:35;6.47;;;3.40;;
74707;SDS011;63360;50.104;8.074;2023-04-09T12:39:03;6.55;;;3.63;;
74707;SDS011;63360;50.104;8.074;2023-04-09T12:41:29;7.05;;;3.97;;
74707;SDS011;63360;50.104;8.074;2023-04-09T12:43:56;6.80;;;3.58;;
74707;SDS011;63360;50.104;8.074;2023-04-09T12:46:22;7.80;;;4.20;;
74707;SDS011;63360;50.104;8.074;2023-04-09T12:48:49;7.37;;;4.10;;
74707;SDS011;63360;50.104;8.074;2023-04-09T12:51:15;6.22;;;3.15;;
74707;SDS011;63360;50.104;8.074;2023-04-09T12:53:41;7.38;;;3.53;;
74707;SDS011;63360;50.104;8.074;2023-04-09T12:56:08;7.85;;;4.13;;
74707;SDS011;63360;50.104;8.074;2023-04-09T12:58:34;9.20;;;4.90;;
74707;SDS011;63360;50.104;8.074;2023-04-09T13:01:01;8.60;;;4.20;;
74707;SDS011;63360;50.104;8.074;2023-04-09T13:03:29;8.23;;;4.55;;
74707;SDS011;63360;50.104;8.074;2023-04-09T13:05:56;8.68;;;4.75;;
74707;SDS011;63360;50.104;8.074;2023-04-09T13:08:22;10.38;;;5.00;;
74707;SDS011;63360;50.104;8.074;2023-04-09T13:10:49;9.57;;;5.35;;
74707;SDS011;63360;50.104;8.074;2023-04-09T13:13:15;9.20;;;5.13;;
74707;SDS011;63360;50.104;8.074;2023-04-09T13:15:42;10.40;;;5.05;;
74707;SDS011;63360;50.104;8.074;2023-04-09T13:18:08;11.45;;;5.53;;
74707;SDS011;63360;50.104;8.074;2023-04-09T13:20:35;9.70;;;5.40;;
74707;SDS011;63360;50.104;8.074;2023-04-09T13:23:02;9.65;;;5.13;;
74707;SDS011;63360;50.104;8.074;2023-04-09T13:25:28;8.87;;;4.73;;
74707;SDS011;63360;50.104;8.074;2023-04-09T13:27:55;9.02;;;5.07;;
74707;SDS011;63360;50.104;8.074;2023-04-09T13:30:21;9.18;;;5.25;;
74707;SDS011;63360;50.104;8.074;2023-04-09T13:32:48;10.27;;;5.40;;
74707;SDS011;63360;50.104;8.074;2023-04-09T13:35:14;8.88;;;4.82;;
74707;SDS011;63360;50.104;8.074;2023-04-09T13:37:40;8.67;;;4.80;;
74707;SDS011;63360;50.104;8.074;2023-04-09T13:40:07;8.80;;;5.20;;
74707;SDS011;63360;50.104;8.074;2023-04-09T13:42:34;9.90;;;5.20;;
74707;SDS011;63360;50.104;8.074;2023-04-09T13:45:02;10.90;;;5.00;;
74707;SDS011;63360;50.104;8.074;2023-04-09T13:47:30;9.88;;;5.05;;
74707;SDS011;63360;50.104;8.074;2023-04-09T13:49:56;9.47;;;5.30;;
74707;SDS011;63360;50.104;8.074;2023-04-09T13:52:23;10.10;;;5.13;;
74707;SDS011;63360;50.104;8.074;2023-04-09T13:54:54;10.45;;;5.18;;
74707;SDS011;63360;50.104;8.074;2023-04-09T13:57:20;9.68;;;5.30;;
74707;SDS011;63360;50.104;8.074;2023-04-09T13:59:47;8.73;;;4.90;;
74707;SDS011;63360;50.104;8.074;2023-04-09T14:02:13;8.40;;;4.73;;
74707;SDS011;63360;50.104;8.074;2023-04-09T14:04:40;8.02;;;4.68;;
74707;SDS011;63360;50.104;8.074;2023-04-09T14:07:07;8.15;;;4.28;;
74707;SDS011;63360;50.104;8.074;2023-04-09T14:09:33;7.57;;;4.38;;
74707;SDS011;63360;50.104;8.074;2023-04-09T14:12:00;7.82;;;4.05;;
74707;SDS011;63360;50.104;8.074;2023-04-09T14:14:26;8.23;;;4.70;;
74707;SDS011;63360;50.104;8.074;2023-04-09T14:16:53;9.05;;;4.78;;
74707;SDS011;63360;50.104;8.074;2023-04-09T14:19:20;8.95;;;4.82;;
74707;SDS011;63360;50.104;8.074;2023-04-09T14:21:47;9.38;;;5.20;;
74707;SDS011;63360;50.104;8.074;2023-04-09T14:24:14;8.95;;;4.72;;
74707;SDS011;63360;50.104;8.074;2023-04-09T14:26:40;8.80;;;4.63;;
74707;SDS011;63360;50.104;8.074;2023-04-09T14:29:07;8.43;;;4.75;;
74707;SDS011;63360;50.104;8.074;2023-04-09T14:31:33;8.18;;;4.25;;
74707;SDS011;63360;50.104;8.074;2023-04-09T14:33:59;7.30;;;4.18;;
74707;SDS011;63360;50.104;8.074;2023-04-09T14:36:26;7.18;;;4.10;;
74707;SDS011;63360;50.104;8.074;2023-04-09T14:38:52;6.23;;;3.53;;
74707;SDS011;63360;50.104;8.074;2023-04-09T14:41:22;7.43;;;3.97;;
74707;SDS011;63360;50.104;8.074;2023-04-09T14:43:49;7.53;;;3.60;;
74707;SDS011;63360;50.104;8.074;2023-04-09T14:46:15;6.50;;;3.70;;
74707;SDS011;63360;50.104;8.074;2023-04-09T14:48:42;7.13;;;3.80;;
74707;SDS011;63360;50.104;8.074;2023-04-09T14:51:08;6.87;;;4.00;;
74707;SDS011;63360;50.104;8.074;2023-04-09T14:53:36;7.82;;;4.10;;
74707;SDS011;63360;50.104;8.074;2023-04-09T14:56:02;7.03;;;3.83;;
74707;SDS011;63360;50.104;8.074;2023-04-09T14:58:29;6.78;;;3.95;;